createdAt,value
2018-04-17T00:00:22.984Z,4.50
2018-04-17T00:02:51.395Z,4.40
2018-04-17T00:05:20.492Z,5.10
2018-04-17T00:07:49.111Z,4.20
2018-04-17T00:10:17.637Z,4.80
2018-04-17T00:12:45.999Z,4.33
2018-04-17T00:15:14.419Z,4.10
2018-04-17T00:17:42.917Z,5.03
2018-04-17T00:20:11.251Z,5.00
2018-04-17T00:22:39.859Z,4.87
2018-04-17T00:25:08.992Z,4.40
2018-04-17T00:27:36.644Z,4.70
2018-04-17T00:30:05.023Z,4.77
2018-04-17T00:32:32.796Z,4.23
2018-04-17T00:35:01.168Z,4.17
2018-04-17T00:37:29.519Z,3.60
2018-04-17T00:39:58.707Z,4.80
2018-04-17T00:42:27.065Z,3.83
2018-04-17T00:44:55.427Z,4.07
2018-04-17T00:47:23.847Z,4.20
2018-04-17T00:49:53.158Z,4.30
2018-04-17T00:52:22.345Z,4.10
2018-04-17T00:54:51.543Z,4.70
2018-04-17T00:57:19.877Z,4.23
2018-04-17T00:59:49.950Z,3.77
2018-04-17T01:02:19.108Z,4.30
2018-04-17T01:04:47.423Z,4.27
2018-04-17T01:07:15.750Z,4.50
2018-04-17T01:09:44.131Z,3.90
2018-04-17T01:12:12.626Z,4.67
2018-04-17T01:14:41.129Z,3.93
2018-04-17T01:17:09.783Z,4.23
2018-04-17T01:19:38.138Z,4.80
2018-04-17T01:22:06.509Z,4.30
2018-04-17T01:24:36.596Z,4.50
2018-04-17T01:27:04.968Z,4.20
2018-04-17T01:29:34.335Z,4.57
2018-04-17T01:32:03.427Z,4.50
2018-04-17T01:34:33.132Z,5.70
2018-04-17T01:37:01.446Z,5.07
2018-04-17T01:39:29.871Z,4.93
2018-04-17T01:41:58.187Z,5.40
2018-04-17T01:44:27.286Z,5.03
2018-04-17T01:46:56.382Z,5.50
2018-04-17T01:49:25.531Z,5.03
2018-04-17T01:51:53.852Z,4.60
2018-04-17T01:54:23.008Z,5.37
2018-04-17T01:56:51.327Z,4.67
2018-04-17T01:59:20.415Z,5.07
2018-04-17T02:01:49.634Z,4.33
2018-04-17T02:04:18.739Z,4.87
2018-04-17T02:06:47.088Z,5.23
2018-04-17T02:09:15.478Z,4.60
2018-04-17T02:11:43.849Z,5.80
2018-04-17T02:14:12.931Z,5.10
2018-04-17T02:16:41.324Z,4.87
2018-04-17T02:19:09.677Z,5.77
2018-04-17T02:21:38.051Z,4.87
2018-04-17T02:24:06.784Z,5.73
2018-04-17T02:26:35.861Z,4.70
2018-04-17T02:29:04.168Z,4.23
2018-04-17T02:31:33.263Z,4.27
2018-04-17T02:34:02.352Z,4.40
2018-04-17T02:36:30.693Z,4.77
2018-04-17T02:38:59.031Z,4.97
2018-04-17T02:41:27.410Z,5.33
2018-04-17T02:43:55.728Z,5.50
2018-04-17T02:46:24.339Z,4.33
2018-04-17T02:48:52.674Z,4.93
2018-04-17T02:51:21.012Z,4.40
2018-04-17T02:53:50.123Z,4.50
2018-04-17T02:56:18.483Z,4.70
2018-04-17T02:58:46.866Z,4.10
2018-04-17T03:01:15.273Z,4.80
2018-04-17T03:03:43.615Z,4.90
2018-04-17T03:06:12.692Z,5.30
2018-04-17T03:08:41.283Z,4.57
2018-04-17T03:11:09.619Z,5.20
2018-04-17T03:13:37.955Z,4.90
2018-04-17T03:16:07.069Z,5.40
2018-04-17T03:18:35.369Z,5.27
2018-04-17T03:21:03.695Z,6.53
2018-04-17T03:23:32.076Z,5.77
2018-04-17T03:26:00.420Z,5.70
2018-04-17T03:28:28.735Z,4.77
2018-04-17T03:30:57.145Z,5.13
2018-04-17T03:33:25.483Z,5.27
2018-04-17T03:35:53.834Z,5.97
2018-04-17T03:38:22.207Z,5.37
2018-04-17T03:40:50.539Z,5.50
2018-04-17T03:43:18.862Z,5.37
2018-04-17T03:45:47.192Z,6.00
2018-04-17T03:48:15.523Z,5.47
2018-04-17T03:50:43.852Z,5.53
2018-04-17T03:53:13.324Z,5.03
2018-04-17T03:55:41.644Z,5.13
2018-04-17T03:58:09.962Z,6.10
2018-04-17T04:00:38.327Z,5.30
2018-04-17T04:03:06.652Z,3.60
2018-04-17T04:05:34.976Z,4.03
2018-04-17T04:08:03.350Z,3.80
2018-04-17T04:10:31.662Z,4.33
2018-04-17T04:12:59.975Z,5.00
2018-04-17T04:15:28.361Z,4.93
2018-04-17T04:18:14.255Z,4.40
2018-04-17T04:21:01.098Z,4.40
2018-04-17T04:23:46.900Z,5.10
2018-04-17T04:26:31.802Z,5.00
2018-04-17T04:29:00.146Z,4.40
2018-04-17T04:31:28.455Z,4.40
2018-04-17T04:33:57.289Z,4.80
2018-04-17T04:36:25.638Z,4.83
2018-04-17T04:38:54.001Z,5.30
2018-04-17T04:41:22.496Z,5.60
2018-04-17T04:43:51.034Z,4.60
2018-04-17T04:46:19.352Z,4.30
2018-04-17T04:48:47.715Z,5.13
2018-04-17T04:51:16.214Z,4.20
2018-04-17T04:53:45.295Z,5.67
2018-04-17T04:56:14.038Z,5.30
2018-04-17T04:58:42.947Z,5.20
2018-04-17T05:01:11.270Z,5.27
2018-04-17T05:03:39.600Z,5.47
2018-04-17T05:06:08.698Z,5.13
2018-04-17T05:08:37.015Z,5.20
2018-04-17T05:11:05.393Z,4.80
2018-04-17T05:13:33.710Z,4.90
2018-04-17T05:16:02.802Z,4.73
2018-04-17T05:18:32.060Z,5.03
2018-04-17T05:21:00.388Z,5.20
2018-04-17T05:23:28.703Z,7.00
2018-04-17T05:25:57.230Z,5.40
2018-04-17T05:28:25.563Z,7.13
2018-04-17T05:30:53.929Z,5.70
2018-04-17T05:33:22.303Z,5.80
2018-04-17T05:35:50.591Z,5.30
2018-04-17T05:38:18.923Z,4.90
2018-04-17T05:40:48.953Z,5.63
2018-04-17T05:43:17.446Z,5.20
2018-04-17T05:45:45.772Z,5.57
2018-04-17T05:48:14.251Z,5.37
2018-04-17T05:50:42.576Z,6.07
2018-04-17T05:53:11.676Z,6.13
2018-04-17T05:55:40.974Z,5.23
2018-04-17T05:58:10.085Z,6.03
2018-04-17T06:00:38.447Z,6.07
2018-04-17T06:03:07.638Z,6.40
2018-04-17T06:05:35.948Z,6.40
2018-04-17T06:08:04.324Z,6.17
2018-04-17T06:10:32.686Z,5.43
2018-04-17T06:13:01.774Z,5.80
2018-04-17T06:15:30.129Z,6.30
2018-04-17T06:17:58.590Z,6.47
2018-04-17T06:20:26.955Z,5.73
2018-04-17T06:22:55.279Z,6.37
2018-04-17T06:25:24.078Z,6.60
2018-04-17T06:27:53.205Z,5.97
2018-04-17T06:30:21.558Z,5.90
2018-04-17T06:32:49.915Z,6.30
2018-04-17T06:35:18.254Z,5.30
2018-04-17T06:37:46.584Z,6.00
2018-04-17T06:40:15.787Z,5.13
2018-04-17T06:42:44.162Z,5.50
2018-04-17T06:45:12.495Z,5.70
2018-04-17T06:47:41.072Z,5.70
2018-04-17T06:50:10.149Z,6.00
2018-04-17T06:52:38.526Z,5.87
2018-04-17T06:55:07.644Z,4.50
2018-04-17T06:57:35.994Z,4.70
2018-04-17T07:00:04.485Z,4.80
2018-04-17T07:02:32.881Z,4.00
2018-04-17T07:05:01.235Z,4.57
2018-04-17T07:07:29.532Z,4.03
2018-04-17T07:09:57.998Z,4.27
2018-04-17T07:12:27.106Z,3.70
2018-04-17T07:14:55.447Z,4.20
2018-04-17T07:17:23.827Z,3.60
2018-04-17T07:19:52.132Z,3.73
2018-04-17T07:22:20.503Z,3.43
2018-04-17T07:24:49.660Z,3.43
2018-04-17T07:27:18.131Z,3.70
2018-04-17T07:29:46.459Z,3.67
2018-04-17T07:32:15.157Z,4.83
2018-04-17T07:34:44.291Z,5.37
2018-04-17T07:37:12.586Z,4.37
2018-04-17T07:39:40.969Z,5.33
2018-04-17T07:42:09.435Z,4.10
2018-04-17T07:44:37.830Z,4.47
2018-04-17T07:47:29.133Z,5.43
2018-04-17T07:49:57.435Z,5.07
2018-04-17T07:52:25.834Z,5.00
2018-04-17T07:54:54.952Z,4.43
2018-04-17T07:57:24.068Z,4.00
2018-04-17T07:59:52.383Z,4.60
2018-04-17T08:02:20.726Z,4.27
2018-04-17T08:04:49.032Z,3.67
2018-04-17T08:07:17.337Z,4.20
2018-04-17T08:09:46.126Z,4.03
2018-04-17T08:12:14.524Z,4.77
2018-04-17T08:14:43.023Z,3.93
2018-04-17T08:17:11.375Z,4.23
2018-04-17T08:19:40.458Z,4.47
2018-04-17T08:22:08.812Z,3.70
2018-04-17T08:24:37.171Z,3.77
2018-04-17T08:27:05.496Z,4.10
2018-04-17T08:29:34.029Z,4.00
2018-04-17T08:32:02.582Z,3.57
2018-04-17T08:34:31.743Z,4.27
2018-04-17T08:37:00.120Z,4.13
2018-04-17T08:39:28.440Z,4.10
2018-04-17T08:41:57.532Z,4.20
2018-04-17T08:44:26.616Z,3.90
2018-04-17T08:46:54.990Z,6.97
2018-04-17T08:49:23.292Z,3.63
2018-04-17T08:51:51.606Z,3.90
2018-04-17T08:54:20.447Z,4.60
2018-04-17T08:56:49.577Z,3.97
2018-04-17T08:59:17.935Z,2.80
2018-04-17T09:01:47.092Z,3.60
2018-04-17T09:04:15.411Z,4.70
2018-04-17T09:06:44.528Z,3.63
2018-04-17T09:09:12.884Z,4.67
2018-04-17T09:11:42.061Z,4.30
2018-04-17T09:14:10.351Z,4.70
2018-04-17T09:16:39.251Z,4.60
2018-04-17T09:19:08.360Z,5.13
2018-04-17T09:21:36.672Z,4.10
2018-04-17T09:24:05.152Z,4.27
2018-04-17T09:26:33.508Z,5.10
2018-04-17T09:29:01.872Z,4.70
2018-04-17T09:31:30.211Z,5.13
2018-04-17T09:33:58.559Z,4.00
2018-04-17T09:36:26.899Z,4.60
2018-04-17T09:38:55.446Z,3.90
2018-04-17T09:41:23.810Z,4.83
2018-04-17T09:43:52.122Z,4.60
2018-04-17T09:46:20.484Z,4.53
2018-04-17T09:48:48.832Z,5.40
2018-04-17T09:51:17.171Z,5.17
2018-04-17T09:53:46.303Z,4.70
2018-04-17T09:56:14.638Z,5.30
2018-04-17T09:58:42.973Z,4.30
2018-04-17T10:01:17.029Z,5.07
2018-04-17T10:03:45.432Z,4.50
2018-04-17T10:06:14.507Z,5.20
2018-04-17T10:08:43.718Z,5.10
2018-04-17T10:11:12.011Z,5.17
2018-04-17T10:13:40.410Z,4.67
2018-04-17T10:16:08.780Z,4.47
2018-04-17T10:18:37.165Z,4.80
2018-04-17T10:21:05.540Z,4.83
2018-04-17T10:23:34.367Z,5.10
2018-04-17T10:26:02.725Z,5.43
2018-04-17T10:28:31.036Z,4.30
2018-04-17T10:30:59.405Z,5.43
2018-04-17T10:33:27.746Z,4.80
2018-04-17T10:35:56.080Z,5.10
2018-04-17T10:38:24.536Z,5.20
2018-04-17T10:40:52.936Z,5.07
2018-04-17T10:43:21.300Z,5.00
2018-04-17T10:45:49.820Z,4.83
2018-04-17T10:48:18.912Z,5.50
2018-04-17T10:50:47.223Z,5.50
2018-04-17T10:53:15.599Z,4.90
2018-04-17T10:55:43.935Z,4.60
2018-04-17T10:58:12.306Z,5.30
2018-04-17T11:00:40.712Z,4.00
2018-04-17T11:03:09.805Z,4.77
2018-04-17T11:05:38.927Z,4.20
2018-04-17T11:08:07.713Z,4.30
2018-04-17T11:10:36.060Z,5.40
2018-04-17T11:13:04.432Z,6.60
2018-04-17T11:15:32.814Z,7.70
2018-04-17T11:18:01.120Z,5.77
2018-04-17T11:20:30.232Z,5.00
2018-04-17T11:22:58.587Z,4.70
2018-04-17T11:25:27.664Z,4.50
2018-04-17T11:27:56.027Z,4.77
2018-04-17T11:30:24.691Z,4.00
2018-04-17T11:32:53.012Z,5.40
2018-04-17T11:35:21.357Z,5.10
2018-04-17T11:37:49.733Z,4.43
2018-04-17T11:40:18.063Z,5.07
2018-04-17T11:42:47.296Z,4.77
2018-04-17T11:45:15.611Z,5.73
2018-04-17T11:47:44.012Z,5.57
2018-04-17T11:50:12.389Z,5.47
2018-04-17T11:52:40.894Z,3.90
2018-04-17T11:55:10.140Z,5.07
2018-04-17T11:57:38.477Z,6.00
2018-04-17T12:00:07.594Z,5.03
2018-04-17T12:02:35.922Z,5.20
2018-04-17T12:05:04.257Z,5.37
2018-04-17T12:07:32.699Z,6.87
2018-04-17T12:10:01.014Z,5.47
2018-04-17T12:12:29.345Z,5.37
2018-04-17T12:14:58.528Z,6.03
2018-04-17T12:17:26.895Z,5.03
2018-04-17T12:19:55.209Z,6.40
2018-04-17T12:22:24.345Z,5.17
2018-04-17T12:24:52.719Z,5.90
2018-04-17T12:27:21.020Z,4.83
2018-04-17T12:29:49.371Z,4.10
2018-04-17T12:32:18.056Z,5.30
2018-04-17T12:34:46.471Z,4.93
2018-04-17T12:37:15.106Z,4.50
2018-04-17T12:39:44.187Z,4.50
2018-04-17T12:42:12.535Z,4.50
2018-04-17T12:44:40.883Z,4.63
2018-04-17T12:47:09.219Z,5.00
2018-04-17T12:49:37.530Z,5.30
2018-04-17T12:52:05.903Z,5.93
2018-04-17T12:54:34.320Z,6.73
2018-04-17T12:57:03.390Z,5.43
2018-04-17T12:59:32.237Z,5.10
2018-04-17T13:02:00.592Z,4.30
2018-04-17T13:04:28.908Z,5.47
2018-04-17T13:06:58.024Z,4.83
2018-04-17T13:09:26.345Z,6.10
2018-04-17T13:11:54.679Z,5.40
2018-04-17T13:14:23.806Z,5.30
2018-04-17T13:16:52.134Z,5.20
2018-04-17T13:19:21.273Z,5.07
2018-04-17T13:21:49.874Z,5.40
2018-04-17T13:24:22.044Z,5.80
2018-04-17T13:26:50.356Z,5.27
2018-04-17T13:29:18.728Z,5.00
2018-04-17T13:31:47.043Z,6.43
2018-04-17T13:34:15.651Z,6.00
2018-04-17T13:36:44.013Z,5.93
2018-04-17T13:39:12.342Z,5.17
2018-04-17T13:41:40.643Z,5.83
2018-04-17T13:44:09.966Z,5.50
2018-04-17T13:46:38.320Z,6.40
2018-04-17T13:49:07.413Z,5.90
2018-04-17T13:51:35.781Z,6.90
2018-04-17T13:54:04.136Z,4.83
2018-04-17T13:56:32.433Z,5.37
2018-04-17T13:59:00.803Z,5.67
2018-04-17T14:01:29.159Z,5.30
2018-04-17T14:03:57.513Z,6.50
2018-04-17T14:06:25.993Z,6.43
2018-04-17T14:08:54.317Z,5.37
2018-04-17T14:11:22.648Z,7.03
2018-04-17T14:13:51.763Z,7.20
2018-04-17T14:16:20.064Z,5.60
2018-04-17T14:18:48.396Z,6.57
2018-04-17T14:21:16.742Z,6.27
2018-04-17T14:23:45.091Z,5.87
2018-04-17T14:26:13.398Z,5.30
2018-04-17T14:28:42.016Z,6.03
2018-04-17T14:31:11.115Z,6.17
2018-04-17T14:33:40.237Z,6.10
2018-04-17T14:36:08.641Z,6.37
2018-04-17T14:38:36.962Z,6.20
2018-04-17T14:41:06.057Z,6.50
2018-04-17T14:43:34.480Z,6.17
2018-04-17T14:46:02.843Z,6.40
2018-04-17T14:48:31.222Z,5.83
2018-04-17T14:50:59.984Z,6.50
2018-04-17T14:53:29.048Z,6.83
2018-04-17T14:55:57.354Z,6.70
2018-04-17T14:58:25.811Z,6.83
2018-04-17T15:00:54.158Z,6.33
2018-04-17T15:03:22.544Z,6.20
2018-04-17T15:05:51.640Z,6.10
2018-04-17T15:08:19.987Z,6.87
2018-04-17T15:10:48.340Z,5.83
2018-04-17T15:13:17.029Z,7.50
2018-04-17T15:15:45.533Z,6.23
2018-04-17T15:18:14.632Z,6.40
2018-04-17T15:20:43.791Z,6.23
2018-04-17T15:23:12.109Z,6.43
2018-04-17T15:25:41.204Z,7.10
2018-04-17T15:28:09.562Z,6.30
2018-04-17T15:30:38.709Z,6.27
2018-04-17T15:33:07.074Z,6.60
2018-04-17T15:35:35.470Z,7.37
2018-04-17T15:38:03.815Z,8.03
2018-04-17T15:40:32.912Z,6.90
2018-04-17T15:43:02.021Z,6.43
2018-04-17T15:45:30.344Z,6.47
2018-04-17T15:47:58.657Z,6.60
2018-04-17T15:50:27.001Z,7.67
2018-04-17T15:52:55.325Z,6.70
2018-04-17T15:55:24.400Z,7.57
2018-04-17T15:57:52.829Z,8.13
2018-04-17T16:00:21.153Z,8.13
2018-04-17T16:02:49.479Z,7.30
2018-04-17T16:05:17.867Z,7.67
2018-04-17T16:07:46.205Z,6.43
2018-04-17T16:10:15.295Z,6.30
2018-04-17T16:12:43.904Z,7.60
2018-04-17T16:15:12.246Z,5.97
2018-04-17T16:17:40.624Z,5.93
2018-04-17T16:20:09.228Z,6.40
2018-04-17T16:22:38.344Z,6.00
2018-04-17T16:25:06.736Z,5.80
2018-04-17T16:27:35.121Z,6.30
2018-04-17T16:30:03.448Z,7.40
2018-04-17T16:32:32.579Z,6.53
2018-04-17T16:35:00.946Z,6.43
2018-04-17T16:37:30.127Z,6.73
2018-04-17T16:39:58.450Z,6.37
2018-04-17T16:42:27.156Z,6.30
2018-04-17T16:44:55.504Z,6.63
2018-04-17T16:47:23.828Z,6.60
2018-04-17T16:49:52.180Z,8.00
2018-04-17T16:52:20.506Z,7.83
2018-04-17T16:54:48.818Z,7.53
2018-04-17T16:57:17.159Z,6.73
2018-04-17T16:59:45.498Z,6.40
2018-04-17T17:02:13.858Z,7.10
2018-04-17T17:04:42.495Z,6.03
2018-04-17T17:07:10.819Z,6.63
2018-04-17T17:09:39.907Z,6.63
2018-04-17T17:12:09.041Z,7.00
2018-04-17T17:14:37.370Z,6.93
2018-04-17T17:17:06.476Z,6.40
2018-04-17T17:19:34.851Z,6.17
2018-04-17T17:22:03.950Z,6.23
2018-04-17T17:24:33.059Z,5.97
2018-04-17T17:27:01.838Z,6.60
2018-04-17T17:29:30.184Z,6.57
2018-04-17T17:31:58.509Z,6.90
2018-04-17T17:34:26.898Z,6.50
2018-04-17T17:36:55.264Z,6.50
2018-04-17T17:39:23.807Z,6.80
2018-04-17T17:41:52.185Z,7.33
2018-04-17T17:44:20.530Z,6.17
2018-04-17T17:46:48.866Z,6.90
2018-04-17T17:49:18.308Z,7.07
2018-04-17T17:51:46.648Z,8.83
2018-04-17T17:54:15.160Z,8.27
2018-04-17T17:56:43.714Z,7.60
2018-04-17T17:59:12.845Z,7.27
2018-04-17T18:01:41.268Z,7.80
2018-04-17T18:04:09.678Z,7.17
2018-04-17T18:06:38.255Z,6.10
2018-04-17T18:09:07.324Z,6.67
2018-04-17T18:11:35.929Z,7.03
2018-04-17T18:14:05.772Z,7.60
2018-04-17T18:16:34.163Z,7.60
2018-04-17T18:19:02.589Z,6.70
2018-04-17T18:21:31.138Z,8.20
2018-04-17T18:23:59.449Z,7.00
2018-04-17T18:26:27.791Z,6.97
2018-04-17T18:28:56.119Z,6.30
2018-04-17T18:31:24.634Z,6.50
2018-04-17T18:33:53.161Z,6.40
2018-04-17T18:36:21.486Z,7.60
2018-04-17T18:38:51.413Z,6.20
2018-04-17T18:41:19.840Z,6.50
2018-04-17T18:43:48.862Z,5.90
2018-04-17T18:46:17.247Z,6.20
2018-04-17T18:48:46.478Z,7.20
2018-04-17T18:51:14.858Z,6.80
2018-04-17T18:53:43.260Z,6.30
2018-04-17T18:56:11.729Z,6.83
2018-04-17T18:58:40.079Z,7.90
2018-04-17T19:01:10.089Z,7.13
2018-04-17T19:03:38.863Z,6.80
2018-04-17T19:06:07.990Z,8.07
2018-04-17T19:08:37.070Z,8.63
2018-04-17T19:11:06.271Z,6.63
2018-04-17T19:13:34.619Z,7.07
2018-04-17T19:16:02.961Z,6.83
2018-04-17T19:18:31.737Z,7.17
2018-04-17T19:21:00.263Z,7.00
2018-04-17T19:23:28.647Z,8.37
2018-04-17T19:25:57.006Z,9.00
2018-04-17T19:28:25.634Z,8.93
2018-04-17T19:30:54.196Z,7.90
2018-04-17T19:33:22.612Z,8.70
2018-04-17T19:35:50.962Z,10.10
2018-04-17T19:38:20.486Z,9.60
2018-04-17T19:40:50.832Z,12.20
2018-04-17T19:43:19.178Z,10.60
2018-04-17T19:45:48.312Z,11.57
2018-04-17T19:48:16.922Z,10.10
2018-04-17T19:50:46.760Z,9.83
2018-04-17T19:53:16.400Z,10.73
2018-04-17T19:55:44.914Z,10.70
2018-04-17T19:58:13.303Z,8.70
2018-04-17T20:00:41.646Z,10.33
2018-04-17T20:03:10.338Z,10.00
2018-04-17T20:05:39.464Z,10.33
2018-04-17T20:08:07.800Z,10.30
2018-04-17T20:10:36.930Z,9.80
2018-04-17T20:13:05.293Z,10.50
2018-04-17T20:15:33.869Z,9.70
2018-04-17T20:18:03.018Z,9.00
2018-04-17T20:20:31.440Z,10.40
2018-04-17T20:23:00.526Z,8.80
2018-04-17T20:25:29.936Z,8.60
2018-04-17T20:27:58.281Z,8.33
2018-04-17T20:30:26.663Z,7.87
2018-04-17T20:32:55.013Z,8.90
2018-04-17T20:35:23.363Z,9.20
2018-04-17T20:37:52.746Z,7.73
2018-04-17T20:40:21.124Z,8.27
2018-04-17T20:42:49.971Z,8.50
2018-04-17T20:45:18.306Z,9.30
2018-04-17T20:47:47.938Z,7.93
2018-04-17T20:50:16.332Z,9.20
2018-04-17T20:52:44.715Z,9.60
2018-04-17T20:55:13.079Z,8.27
2018-04-17T20:57:41.454Z,8.83
2018-04-17T21:00:09.813Z,8.90
2018-04-17T21:02:39.054Z,8.97
2018-04-17T21:05:07.509Z,8.73
2018-04-17T21:07:36.071Z,8.20
2018-04-17T21:10:04.692Z,8.53
2018-04-17T21:12:33.235Z,8.70
2018-04-17T21:15:01.563Z,9.00
2018-04-17T21:17:29.941Z,9.07
2018-04-17T21:19:58.303Z,9.10
2018-04-17T21:22:26.647Z,8.70
2018-04-17T21:24:56.617Z,8.90
2018-04-17T21:27:25.039Z,8.27
2018-04-17T21:29:53.402Z,9.73
2018-04-17T21:32:22.101Z,8.63
2018-04-17T21:34:50.425Z,9.20
2018-04-17T21:37:18.959Z,8.30
2018-04-17T21:39:47.334Z,8.97
2018-04-17T21:42:15.652Z,8.40
2018-04-17T21:44:45.271Z,9.50
2018-04-17T21:47:13.747Z,9.37
2018-04-17T21:49:42.843Z,9.37
2018-04-17T21:52:11.197Z,8.83
2018-04-17T21:54:40.538Z,8.57
2018-04-17T21:57:08.848Z,9.33
2018-04-17T21:59:37.177Z,8.47
2018-04-17T22:02:06.357Z,9.07
2018-04-17T22:04:35.447Z,9.47
2018-04-17T22:07:03.747Z,9.00
2018-04-17T22:09:32.860Z,9.00
2018-04-17T22:12:01.192Z,8.87
2018-04-17T22:14:29.515Z,10.00
2018-04-17T22:16:58.116Z,9.50
2018-04-17T22:19:26.607Z,10.40
2018-04-17T22:21:55.107Z,10.00
2018-04-17T22:24:23.478Z,8.77
2018-04-17T22:26:51.942Z,9.23
2018-04-17T22:29:20.304Z,8.70
2018-04-17T22:31:48.729Z,8.50
2018-04-17T22:34:17.048Z,9.57
2018-04-17T22:36:46.240Z,8.77
2018-04-17T22:39:14.671Z,8.83
2018-04-17T22:41:42.996Z,9.43
2018-04-17T22:44:11.332Z,9.20
2018-04-17T22:46:39.723Z,8.90
2018-04-17T22:49:08.081Z,8.83
2018-04-17T22:51:36.412Z,9.97
2018-04-17T22:54:04.828Z,9.30
2018-04-17T22:56:33.178Z,10.10
2018-04-17T22:59:02.280Z,9.20
2018-04-17T23:01:31.863Z,9.20
2018-04-17T23:04:00.357Z,9.53
2018-04-17T23:06:29.048Z,9.30
2018-04-17T23:08:57.569Z,9.30
2018-04-17T23:11:25.883Z,9.20
2018-04-17T23:13:54.183Z,10.50
2018-04-17T23:16:23.448Z,9.10
2018-04-17T23:18:51.786Z,10.50
2018-04-17T23:21:20.375Z,10.37
2018-04-17T23:23:49.078Z,9.37
2018-04-17T23:26:17.392Z,9.43
2018-04-17T23:28:46.545Z,10.43
2018-04-17T23:31:14.960Z,9.60
2018-04-17T23:33:43.582Z,9.93
2018-04-17T23:36:12.670Z,10.63
2018-04-17T23:38:41.150Z,9.13
2018-04-17T23:41:09.502Z,10.00
2018-04-17T23:43:37.851Z,10.53
2018-04-17T23:46:06.390Z,10.33
2018-04-17T23:48:34.737Z,9.73
2018-04-17T23:51:03.382Z,9.07
2018-04-17T23:53:31.895Z,9.70
2018-04-17T23:56:00.353Z,9.10
2018-04-17T23:58:28.833Z,10.10
